VOI1183 MMHO-MMGL
Flight info
| Callsign | VOI1183 |
|---|---|
| Flight time | 1h 39m |
| Altitude | 37000 |
| Route | SEBEK1B SEBEK UJ7 AMULA AMULA1B |
| Aircraft | A320/M-SDE3FGHIRWY/LB1 |
Departure
| Time | 2026-05-05 04:55 |
|---|---|
| Airport | General Ignacio L. Pesqueira International Airport (MMHO) |
Arrival
| Time | 2026-05-05 06:34 |
|---|---|
| Airport | Guadalajara International Airport (MMGL) |
| Time | Latitude | Longitude | Altitude | Speed | Heading |
|---|---|---|---|---|---|
| 2026-05-05 04:49 | 29.09071 | -111.05233 | 643 ft | 2 kts | 147° |
| 2026-05-05 04:49 | 29.09085 | -111.05243 | 644 ft | 2 kts | 147° |
| 2026-05-05 04:50 | 29.09098 | -111.05253 | 645 ft | 2 kts | 146° |
| 2026-05-05 04:50 | 29.09112 | -111.05264 | 644 ft | 2 kts | 139° |
| 2026-05-05 04:50 | 29.09123 | -111.05278 | 644 ft | 2 kts | 67° |
| 2026-05-05 04:50 | 29.09119 | -111.05285 | 642 ft | 0 kts | 60° |
| 2026-05-05 04:51 | 29.09120 | -111.05284 | 642 ft | 0 kts | 60° |
| 2026-05-05 04:51 | 29.09123 | -111.05278 | 643 ft | 1 kts | 60° |
| 2026-05-05 04:51 | 29.09130 | -111.05263 | 642 ft | 3 kts | 59° |
| 2026-05-05 04:51 | 29.09142 | -111.05240 | 642 ft | 4 kts | 59° |
| 2026-05-05 04:52 | 29.09160 | -111.05208 | 642 ft | 5 kts | 58° |
| 2026-05-05 04:52 | 29.09184 | -111.05163 | 643 ft | 9 kts | 58° |
| 2026-05-05 04:52 | 29.09220 | -111.05097 | 643 ft | 10 kts | 58° |
| 2026-05-05 04:52 | 29.09260 | -111.05021 | 643 ft | 12 kts | 59° |
| 2026-05-05 04:53 | 29.09305 | -111.04938 | 644 ft | 13 kts | 58° |
| 2026-05-05 04:53 | 29.09358 | -111.04927 | 643 ft | 10 kts | 320° |
| 2026-05-05 04:53 | 29.09418 | -111.04994 | 640 ft | 15 kts | 317° |
| 2026-05-05 04:53 | 29.09440 | -111.05042 | 639 ft | 0 kts | 239° |
| 2026-05-05 04:54 | 29.09429 | -111.05067 | 641 ft | 26 kts | 243° |
| 2026-05-05 04:54 | 29.09178 | -111.05542 | 632 ft | 110 kts | 239° |
| 2026-05-05 04:54 | 29.08677 | -111.06506 | 701 ft | 162 kts | 240° |
| 2026-05-05 04:54 | 29.08054 | -111.07704 | 1137 ft | 184 kts | 239° |
| 2026-05-05 04:55 | 29.07397 | -111.08937 | 1813 ft | 180 kts | 240° |
| 2026-05-05 04:55 | 29.06749 | -111.10143 | 2451 ft | 178 kts | 240° |
| 2026-05-05 04:55 | 29.06070 | -111.11410 | 2762 ft | 198 kts | 241° |
| 2026-05-05 04:55 | 29.05314 | -111.12822 | 3020 ft | 218 kts | 240° |
| 2026-05-05 04:56 | 29.04484 | -111.14372 | 3348 ft | 238 kts | 239° |
| 2026-05-05 04:56 | 29.03415 | -111.15928 | 3751 ft | 260 kts | 223° |
| 2026-05-05 04:56 | 29.01929 | -111.17154 | 4403 ft | 266 kts | 208° |
| 2026-05-05 04:56 | 29.00188 | -111.17891 | 4889 ft | 269 kts | 192° |
| 2026-05-05 04:57 | 28.98321 | -111.18043 | 5357 ft | 271 kts | 176° |
| 2026-05-05 04:57 | 28.96471 | -111.17591 | 5819 ft | 274 kts | 160° |
| 2026-05-05 04:57 | 28.94788 | -111.16541 | 6398 ft | 279 kts | 143° |
| 2026-05-05 04:57 | 28.93291 | -111.15124 | 7189 ft | 281 kts | 142° |
| 2026-05-05 04:58 | 28.91782 | -111.13682 | 7951 ft | 284 kts | 142° |
| 2026-05-05 04:58 | 28.90260 | -111.12233 | 8736 ft | 286 kts | 142° |
| 2026-05-05 04:58 | 28.88723 | -111.10772 | 9474 ft | 290 kts | 143° |
| 2026-05-05 04:58 | 28.87161 | -111.09291 | 10142 ft | 295 kts | 142° |
| 2026-05-05 04:59 | 28.85529 | -111.07751 | 10399 ft | 316 kts | 143° |
| 2026-05-05 04:59 | 28.83780 | -111.06098 | 10531 ft | 338 kts | 143° |
| 2026-05-05 04:59 | 28.81919 | -111.04332 | 10735 ft | 355 kts | 143° |
| 2026-05-05 04:59 | 28.80008 | -111.02509 | 11244 ft | 361 kts | 143° |
| 2026-05-05 05:00 | 28.78072 | -111.00662 | 11841 ft | 364 kts | 144° |
| 2026-05-05 05:00 | 28.76119 | -110.98798 | 12440 ft | 368 kts | 144° |
| 2026-05-05 05:00 | 28.74144 | -110.96918 | 13026 ft | 372 kts | 145° |
| 2026-05-05 05:00 | 28.72152 | -110.95025 | 13622 ft | 375 kts | 145° |
| 2026-05-05 05:01 | 28.70135 | -110.93111 | 14156 ft | 379 kts | 145° |
| 2026-05-05 05:01 | 28.68103 | -110.91181 | 14662 ft | 382 kts | 146° |
| 2026-05-05 05:01 | 28.66055 | -110.89235 | 15211 ft | 385 kts | 146° |
| 2026-05-05 05:01 | 28.63991 | -110.87281 | 15745 ft | 388 kts | 146° |
| 2026-05-05 05:02 | 28.61909 | -110.85310 | 16274 ft | 391 kts | 147° |
| 2026-05-05 05:02 | 28.59809 | -110.83324 | 16820 ft | 394 kts | 147° |
| 2026-05-05 05:02 | 28.57688 | -110.81322 | 17329 ft | 397 kts | 147° |
| 2026-05-05 05:02 | 28.55584 | -110.79337 | 17890 ft | 400 kts | 147° |
| 2026-05-05 05:03 | 28.53436 | -110.77309 | 18402 ft | 403 kts | 148° |
| 2026-05-05 05:03 | 28.51272 | -110.75267 | 18822 ft | 405 kts | 148° |
| 2026-05-05 05:03 | 28.49094 | -110.73208 | 19272 ft | 409 kts | 148° |
| 2026-05-05 05:03 | 28.46898 | -110.71137 | 19649 ft | 413 kts | 148° |
| 2026-05-05 05:04 | 28.44653 | -110.69029 | 19778 ft | 425 kts | 148° |
| 2026-05-05 05:04 | 28.42346 | -110.66865 | 19899 ft | 436 kts | 148° |
| 2026-05-05 05:04 | 28.39975 | -110.64641 | 20020 ft | 446 kts | 148° |
| 2026-05-05 05:04 | 28.37558 | -110.62373 | 20144 ft | 455 kts | 148° |
| 2026-05-05 05:05 | 28.35103 | -110.60060 | 20396 ft | 461 kts | 148° |
| 2026-05-05 05:05 | 28.32634 | -110.57727 | 20707 ft | 464 kts | 148° |
| 2026-05-05 05:05 | 28.30143 | -110.55374 | 21045 ft | 466 kts | 148° |
| 2026-05-05 05:05 | 28.27645 | -110.53015 | 21359 ft | 469 kts | 148° |
| 2026-05-05 05:06 | 28.25129 | -110.50650 | 21667 ft | 471 kts | 148° |
| 2026-05-05 05:06 | 28.22594 | -110.48277 | 21946 ft | 473 kts | 148° |
| 2026-05-05 05:06 | 28.20046 | -110.45896 | 22188 ft | 475 kts | 148° |
| 2026-05-05 05:06 | 28.17522 | -110.43537 | 22518 ft | 475 kts | 148° |
| 2026-05-05 05:07 | 28.14975 | -110.41153 | 22948 ft | 474 kts | 149° |
| 2026-05-05 05:07 | 28.12434 | -110.38773 | 23373 ft | 473 kts | 149° |
| 2026-05-05 05:07 | 28.09899 | -110.36401 | 23761 ft | 473 kts | 149° |
| 2026-05-05 05:07 | 28.07366 | -110.34032 | 24147 ft | 471 kts | 149° |
| 2026-05-05 05:08 | 28.04838 | -110.31669 | 24536 ft | 471 kts | 149° |
| 2026-05-05 05:08 | 28.02315 | -110.29312 | 24891 ft | 470 kts | 149° |
| 2026-05-05 05:08 | 27.99790 | -110.26957 | 25251 ft | 470 kts | 149° |
| 2026-05-05 05:08 | 27.97263 | -110.24616 | 25616 ft | 467 kts | 151° |
| 2026-05-05 05:09 | 27.94607 | -110.22583 | 26005 ft | 459 kts | 157° |
| 2026-05-05 05:09 | 27.91903 | -110.20671 | 26406 ft | 458 kts | 157° |
| 2026-05-05 05:09 | 27.89203 | -110.18762 | 26812 ft | 457 kts | 157° |
| 2026-05-05 05:09 | 27.86512 | -110.16860 | 27223 ft | 456 kts | 158° |
| 2026-05-05 05:10 | 27.83819 | -110.14959 | 27636 ft | 456 kts | 158° |
| 2026-05-05 05:10 | 27.81134 | -110.13060 | 28043 ft | 455 kts | 158° |
| 2026-05-05 05:10 | 27.78448 | -110.11159 | 28447 ft | 455 kts | 158° |
| 2026-05-05 05:10 | 27.75763 | -110.09259 | 28857 ft | 455 kts | 158° |
| 2026-05-05 05:11 | 27.73082 | -110.07362 | 29265 ft | 454 kts | 158° |
| 2026-05-05 05:11 | 27.70408 | -110.05473 | 29722 ft | 453 kts | 158° |
| 2026-05-05 05:11 | 27.67731 | -110.03589 | 30165 ft | 452 kts | 158° |
| 2026-05-05 05:11 | 27.65067 | -110.01715 | 30544 ft | 451 kts | 158° |
| 2026-05-05 05:12 | 27.63305 | -110.00472 | 30804 ft | 451 kts | 158° |
| 2026-05-05 05:12 | 27.59755 | -109.97966 | 31324 ft | 450 kts | 158° |
| 2026-05-05 05:12 | 27.57140 | -109.96121 | 31707 ft | 449 kts | 158° |
| 2026-05-05 05:12 | 27.54497 | -109.94260 | 32103 ft | 448 kts | 159° |
| 2026-05-05 05:13 | 27.51855 | -109.92403 | 32496 ft | 447 kts | 159° |
| 2026-05-05 05:13 | 27.49219 | -109.90552 | 32897 ft | 446 kts | 159° |
| 2026-05-05 05:13 | 27.47440 | -109.89305 | 33140 ft | 445 kts | 159° |
| 2026-05-05 05:13 | 27.44813 | -109.87463 | 33535 ft | 445 kts | 159° |
| 2026-05-05 05:14 | 27.42223 | -109.85646 | 33928 ft | 444 kts | 159° |
| 2026-05-05 05:14 | 27.39614 | -109.83776 | 34256 ft | 448 kts | 155° |
| 2026-05-05 05:14 | 27.37142 | -109.81580 | 34544 ft | 454 kts | 151° |
| 2026-05-05 05:14 | 27.34699 | -109.79325 | 34818 ft | 455 kts | 151° |
| 2026-05-05 05:15 | 27.32253 | -109.77062 | 35053 ft | 456 kts | 151° |
| 2026-05-05 05:15 | 27.29797 | -109.74792 | 35308 ft | 457 kts | 151° |
| 2026-05-05 05:15 | 27.27343 | -109.72523 | 35569 ft | 457 kts | 151° |
| 2026-05-05 05:15 | 27.24883 | -109.70250 | 35850 ft | 457 kts | 150° |
| 2026-05-05 05:16 | 27.22426 | -109.67980 | 36073 ft | 458 kts | 150° |
| 2026-05-05 05:16 | 27.19960 | -109.65706 | 36329 ft | 458 kts | 150° |
| 2026-05-05 05:16 | 27.17497 | -109.63441 | 36588 ft | 458 kts | 150° |
| 2026-05-05 05:16 | 27.15031 | -109.61178 | 36832 ft | 458 kts | 150° |
| 2026-05-05 05:17 | 27.12558 | -109.58911 | 36944 ft | 460 kts | 150° |
| 2026-05-05 05:17 | 27.07536 | -109.54310 | 36970 ft | 472 kts | 150° |
| 2026-05-05 05:18 | 27.02406 | -109.49608 | 36973 ft | 478 kts | 150° |
| 2026-05-05 05:18 | 26.97251 | -109.44872 | 36947 ft | 480 kts | 149° |
| 2026-05-05 05:19 | 26.92075 | -109.40122 | 36970 ft | 481 kts | 149° |
| 2026-05-05 05:19 | 26.86930 | -109.35416 | 36977 ft | 481 kts | 149° |
| 2026-05-05 05:20 | 26.81737 | -109.30679 | 36982 ft | 481 kts | 149° |
| 2026-05-05 05:20 | 26.76541 | -109.25945 | 36986 ft | 482 kts | 149° |
| 2026-05-05 05:21 | 26.71342 | -109.21203 | 36965 ft | 482 kts | 149° |
| 2026-05-05 05:21 | 26.66142 | -109.16479 | 36980 ft | 481 kts | 149° |
| 2026-05-05 05:22 | 26.60943 | -109.11761 | 36976 ft | 481 kts | 149° |
| 2026-05-05 05:22 | 26.55741 | -109.07040 | 36982 ft | 481 kts | 149° |
| 2026-05-05 05:23 | 26.50540 | -109.02327 | 36985 ft | 482 kts | 149° |
| 2026-05-05 05:23 | 26.45364 | -108.97645 | 36992 ft | 482 kts | 149° |
| 2026-05-05 05:24 | 26.40160 | -108.92939 | 36994 ft | 482 kts | 149° |
| 2026-05-05 05:24 | 26.34954 | -108.88236 | 36992 ft | 481 kts | 149° |
| 2026-05-05 05:25 | 26.29747 | -108.83539 | 36985 ft | 481 kts | 149° |
| 2026-05-05 05:25 | 26.24547 | -108.78852 | 36983 ft | 481 kts | 149° |
| 2026-05-05 05:26 | 26.19335 | -108.74169 | 36961 ft | 481 kts | 149° |
| 2026-05-05 05:26 | 26.14120 | -108.69475 | 36976 ft | 482 kts | 148° |
| 2026-05-05 05:27 | 26.08898 | -108.64783 | 36980 ft | 482 kts | 149° |
| 2026-05-05 05:27 | 26.01083 | -108.57796 | 36986 ft | 483 kts | 149° |
| 2026-05-05 05:28 | 25.95844 | -108.53110 | 36989 ft | 483 kts | 149° |
| 2026-05-05 05:28 | 25.90617 | -108.48425 | 36978 ft | 483 kts | 148° |
| 2026-05-05 05:29 | 25.85390 | -108.43746 | 36978 ft | 482 kts | 148° |
| 2026-05-05 05:29 | 25.80162 | -108.39086 | 36980 ft | 482 kts | 148° |
| 2026-05-05 05:30 | 25.74919 | -108.34425 | 36978 ft | 483 kts | 148° |
| 2026-05-05 05:30 | 25.69667 | -108.29760 | 36981 ft | 483 kts | 148° |
| 2026-05-05 05:31 | 25.64421 | -108.25098 | 36974 ft | 483 kts | 148° |
| 2026-05-05 05:31 | 25.59177 | -108.20437 | 36979 ft | 483 kts | 148° |
| 2026-05-05 05:32 | 25.53961 | -108.15816 | 36982 ft | 483 kts | 148° |
| 2026-05-05 05:32 | 25.48710 | -108.11166 | 36982 ft | 483 kts | 148° |
| 2026-05-05 05:33 | 25.43457 | -108.06521 | 36991 ft | 483 kts | 148° |
| 2026-05-05 05:33 | 25.38201 | -108.01882 | 36977 ft | 483 kts | 148° |
| 2026-05-05 05:34 | 25.32952 | -107.97253 | 36982 ft | 482 kts | 148° |
| 2026-05-05 05:34 | 25.27711 | -107.92633 | 36979 ft | 482 kts | 148° |
| 2026-05-05 05:35 | 25.22468 | -107.88022 | 36985 ft | 482 kts | 148° |
| 2026-05-05 05:35 | 25.17255 | -107.83443 | 36981 ft | 482 kts | 148° |
| 2026-05-05 05:36 | 25.12006 | -107.78832 | 36967 ft | 482 kts | 148° |
| 2026-05-05 05:36 | 25.06755 | -107.74231 | 36980 ft | 482 kts | 148° |
| 2026-05-05 05:37 | 25.01495 | -107.69629 | 36990 ft | 482 kts | 148° |
| 2026-05-05 05:37 | 24.96239 | -107.65027 | 36995 ft | 482 kts | 148° |
| 2026-05-05 05:38 | 24.90981 | -107.60430 | 37003 ft | 482 kts | 148° |
| 2026-05-05 05:38 | 24.85726 | -107.55827 | 37000 ft | 482 kts | 147° |
| 2026-05-05 05:39 | 24.80476 | -107.51239 | 37009 ft | 482 kts | 147° |
| 2026-05-05 05:39 | 24.75209 | -107.46685 | 37013 ft | 481 kts | 149° |
| 2026-05-05 05:40 | 24.69774 | -107.42432 | 37014 ft | 478 kts | 152° |
| 2026-05-05 05:40 | 24.64250 | -107.38366 | 37007 ft | 478 kts | 152° |
| 2026-05-05 05:41 | 24.58740 | -107.34254 | 36976 ft | 478 kts | 151° |
| 2026-05-05 05:41 | 24.53311 | -107.30112 | 36984 ft | 478 kts | 151° |
| 2026-05-05 05:42 | 24.47854 | -107.25938 | 36985 ft | 478 kts | 151° |
| 2026-05-05 05:42 | 24.42393 | -107.21784 | 36985 ft | 477 kts | 151° |
| 2026-05-05 05:43 | 24.36928 | -107.17645 | 36989 ft | 477 kts | 151° |
| 2026-05-05 05:43 | 24.31462 | -107.13506 | 36977 ft | 477 kts | 150° |
| 2026-05-05 05:44 | 24.26004 | -107.09379 | 36982 ft | 476 kts | 150° |
| 2026-05-05 05:44 | 24.20545 | -107.05252 | 36987 ft | 476 kts | 150° |
| 2026-05-05 05:45 | 24.15093 | -107.01142 | 36991 ft | 476 kts | 151° |
| 2026-05-05 05:45 | 24.09629 | -106.97028 | 36992 ft | 476 kts | 151° |
| 2026-05-05 05:46 | 24.04177 | -106.92916 | 36973 ft | 476 kts | 150° |
| 2026-05-05 05:46 | 23.98761 | -106.88844 | 36989 ft | 475 kts | 150° |
| 2026-05-05 05:47 | 23.93316 | -106.84751 | 36996 ft | 475 kts | 150° |
| 2026-05-05 05:47 | 23.87876 | -106.80657 | 36990 ft | 475 kts | 150° |
| 2026-05-05 05:48 | 23.82439 | -106.76572 | 36991 ft | 474 kts | 150° |
| 2026-05-05 05:48 | 23.77001 | -106.72497 | 36990 ft | 474 kts | 150° |
| 2026-05-05 05:49 | 23.71564 | -106.68426 | 36990 ft | 474 kts | 150° |
| 2026-05-05 05:49 | 23.66123 | -106.64358 | 36987 ft | 474 kts | 150° |
| 2026-05-05 05:50 | 23.60674 | -106.60287 | 36989 ft | 475 kts | 150° |
| 2026-05-05 05:50 | 23.55220 | -106.56214 | 36990 ft | 475 kts | 150° |
| 2026-05-05 05:51 | 23.49767 | -106.52139 | 37005 ft | 475 kts | 150° |
| 2026-05-05 05:51 | 23.44313 | -106.48072 | 36991 ft | 475 kts | 150° |
| 2026-05-05 05:52 | 23.38858 | -106.44024 | 36999 ft | 474 kts | 150° |
| 2026-05-05 05:52 | 23.33413 | -106.39984 | 36995 ft | 474 kts | 150° |
| 2026-05-05 05:53 | 23.27975 | -106.35940 | 36994 ft | 474 kts | 150° |
| 2026-05-05 05:53 | 23.22531 | -106.31899 | 36995 ft | 473 kts | 150° |
| 2026-05-05 05:54 | 23.17218 | -106.27658 | 36992 ft | 478 kts | 140° |
| 2026-05-05 05:54 | 23.13099 | -106.21971 | 36999 ft | 486 kts | 125° |
| 2026-05-05 05:55 | 23.09551 | -106.15730 | 37002 ft | 486 kts | 125° |
| 2026-05-05 05:55 | 23.05978 | -106.09505 | 37002 ft | 486 kts | 126° |
| 2026-05-05 05:56 | 23.02392 | -106.03276 | 37003 ft | 486 kts | 126° |
| 2026-05-05 05:56 | 22.98818 | -105.97054 | 37006 ft | 486 kts | 125° |
| 2026-05-05 05:57 | 22.95235 | -105.90829 | 37012 ft | 486 kts | 125° |
| 2026-05-05 05:57 | 22.91647 | -105.84610 | 36999 ft | 486 kts | 125° |
| 2026-05-05 05:58 | 22.88062 | -105.78402 | 37009 ft | 485 kts | 125° |
| 2026-05-05 05:58 | 22.84488 | -105.72211 | 37020 ft | 484 kts | 125° |
| 2026-05-05 05:59 | 22.80936 | -105.66059 | 37011 ft | 484 kts | 125° |
| 2026-05-05 05:59 | 22.77358 | -105.59882 | 37018 ft | 484 kts | 125° |
| 2026-05-05 06:00 | 22.73773 | -105.53708 | 37016 ft | 484 kts | 125° |
| 2026-05-05 06:00 | 22.70189 | -105.47535 | 37026 ft | 484 kts | 125° |
| 2026-05-05 06:01 | 22.67185 | -105.42357 | 37026 ft | 484 kts | 125° |
| 2026-05-05 06:01 | 22.63624 | -105.36232 | 37026 ft | 483 kts | 125° |
| 2026-05-05 06:02 | 22.60043 | -105.30077 | 37037 ft | 483 kts | 125° |
| 2026-05-05 06:02 | 22.56459 | -105.23937 | 37037 ft | 483 kts | 125° |
| 2026-05-05 06:03 | 22.52873 | -105.17802 | 37057 ft | 482 kts | 125° |
| 2026-05-05 06:03 | 22.49331 | -105.11642 | 37046 ft | 483 kts | 120° |
| 2026-05-05 06:04 | 22.45824 | -105.05478 | 37060 ft | 481 kts | 127° |
| 2026-05-05 06:04 | 22.42178 | -104.99413 | 37060 ft | 482 kts | 124° |
| 2026-05-05 06:05 | 22.38658 | -104.93256 | 37048 ft | 482 kts | 124° |
| 2026-05-05 06:05 | 22.35110 | -104.87111 | 37063 ft | 481 kts | 124° |
| 2026-05-05 06:06 | 22.31507 | -104.81008 | 37066 ft | 481 kts | 125° |
| 2026-05-05 06:06 | 22.27905 | -104.74931 | 37058 ft | 480 kts | 125° |
| 2026-05-05 06:07 | 22.24308 | -104.68854 | 37054 ft | 480 kts | 124° |
| 2026-05-05 06:07 | 22.20716 | -104.62778 | 37068 ft | 480 kts | 124° |
| 2026-05-05 06:08 | 22.17134 | -104.56744 | 37058 ft | 480 kts | 124° |
| 2026-05-05 06:08 | 22.13531 | -104.50666 | 37058 ft | 481 kts | 124° |
| 2026-05-05 06:09 | 22.09932 | -104.44597 | 37071 ft | 480 kts | 124° |
| 2026-05-05 06:09 | 22.06328 | -104.38533 | 37073 ft | 480 kts | 124° |
| 2026-05-05 06:10 | 22.02730 | -104.32482 | 37078 ft | 479 kts | 124° |
| 2026-05-05 06:10 | 21.99154 | -104.26461 | 37082 ft | 479 kts | 124° |
| 2026-05-05 06:11 | 21.95544 | -104.20422 | 37087 ft | 479 kts | 124° |
| 2026-05-05 06:11 | 21.91912 | -104.14345 | 37083 ft | 479 kts | 124° |
| 2026-05-05 06:12 | 21.88325 | -104.08336 | 37087 ft | 480 kts | 124° |
| 2026-05-05 06:12 | 21.84710 | -104.02296 | 37074 ft | 479 kts | 124° |
| 2026-05-05 06:13 | 21.81093 | -103.96272 | 37087 ft | 479 kts | 124° |
| 2026-05-05 06:13 | 21.77482 | -103.90249 | 37081 ft | 478 kts | 124° |
| 2026-05-05 06:14 | 21.73883 | -103.84233 | 37083 ft | 478 kts | 124° |
| 2026-05-05 06:14 | 21.70279 | -103.78223 | 37080 ft | 478 kts | 124° |
| 2026-05-05 06:15 | 21.66595 | -103.72330 | 37080 ft | 476 kts | 131° |
| 2026-05-05 06:15 | 21.61695 | -103.67666 | 37057 ft | 465 kts | 150° |
| 2026-05-05 06:16 | 21.55873 | -103.65005 | 37051 ft | 452 kts | 165° |
| 2026-05-05 06:16 | 21.49866 | -103.63040 | 37051 ft | 451 kts | 165° |
| 2026-05-05 06:17 | 21.43848 | -103.61055 | 36396 ft | 457 kts | 164° |
| 2026-05-05 06:17 | 21.40792 | -103.60046 | 35567 ft | 463 kts | 164° |
| 2026-05-05 06:17 | 21.37760 | -103.58834 | 34849 ft | 467 kts | 153° |
| 2026-05-05 06:18 | 21.34952 | -103.57074 | 34156 ft | 469 kts | 150° |
| 2026-05-05 06:18 | 21.32144 | -103.55265 | 33362 ft | 471 kts | 150° |
| 2026-05-05 06:18 | 21.29329 | -103.53449 | 32501 ft | 472 kts | 150° |
| 2026-05-05 06:18 | 21.26510 | -103.51610 | 31310 ft | 476 kts | 150° |
| 2026-05-05 06:19 | 21.23673 | -103.49745 | 30047 ft | 481 kts | 149° |
| 2026-05-05 06:19 | 21.20837 | -103.47877 | 28557 ft | 486 kts | 149° |
| 2026-05-05 06:19 | 21.17943 | -103.45973 | 27125 ft | 489 kts | 149° |
| 2026-05-05 06:19 | 21.15040 | -103.44071 | 25729 ft | 490 kts | 149° |
| 2026-05-05 06:20 | 21.12127 | -103.42168 | 24331 ft | 491 kts | 149° |
| 2026-05-05 06:20 | 21.09234 | -103.40284 | 23311 ft | 481 kts | 149° |
| 2026-05-05 06:20 | 21.06405 | -103.38442 | 22155 ft | 471 kts | 149° |
| 2026-05-05 06:20 | 21.03634 | -103.36635 | 21035 ft | 462 kts | 149° |
| 2026-05-05 06:21 | 21.00916 | -103.34861 | 19967 ft | 453 kts | 149° |
| 2026-05-05 06:21 | 20.98248 | -103.33118 | 18924 ft | 445 kts | 148° |
| 2026-05-05 06:21 | 20.95635 | -103.31413 | 18038 ft | 434 kts | 148° |
| 2026-05-05 06:21 | 20.93095 | -103.29756 | 17151 ft | 421 kts | 149° |
| 2026-05-05 06:22 | 20.90609 | -103.28134 | 16118 ft | 417 kts | 149° |
| 2026-05-05 06:22 | 20.88157 | -103.26536 | 15296 ft | 408 kts | 149° |
| 2026-05-05 06:22 | 20.85753 | -103.24972 | 14532 ft | 400 kts | 149° |
| 2026-05-05 06:22 | 20.83389 | -103.23436 | 13805 ft | 396 kts | 149° |
| 2026-05-05 06:23 | 20.81037 | -103.21910 | 13052 ft | 393 kts | 150° |
| 2026-05-05 06:23 | 20.78711 | -103.20404 | 12371 ft | 390 kts | 150° |
| 2026-05-05 06:23 | 20.76423 | -103.18922 | 11905 ft | 377 kts | 150° |
| 2026-05-05 06:23 | 20.74233 | -103.17498 | 11596 ft | 361 kts | 150° |
| 2026-05-05 06:24 | 20.72140 | -103.16135 | 11440 ft | 343 kts | 150° |
| 2026-05-05 06:24 | 20.70148 | -103.14836 | 11305 ft | 328 kts | 150° |
| 2026-05-05 06:24 | 20.68260 | -103.13605 | 11166 ft | 308 kts | 150° |
| 2026-05-05 06:24 | 20.66464 | -103.12438 | 10675 ft | 298 kts | 150° |
| 2026-05-05 06:25 | 20.64703 | -103.11297 | 10186 ft | 294 kts | 151° |
| 2026-05-05 06:25 | 20.63004 | -103.10198 | 10032 ft | 277 kts | 151° |
| 2026-05-05 06:25 | 20.61405 | -103.09161 | 9919 ft | 260 kts | 151° |
| 2026-05-05 06:25 | 20.59930 | -103.08204 | 9813 ft | 243 kts | 151° |
| 2026-05-05 06:26 | 20.58515 | -103.07285 | 9778 ft | 228 kts | 152° |
| 2026-05-05 06:26 | 20.57183 | -103.06424 | 9789 ft | 226 kts | 152° |
| 2026-05-05 06:26 | 20.55845 | -103.05561 | 9790 ft | 225 kts | 152° |
| 2026-05-05 06:26 | 20.54504 | -103.04696 | 9791 ft | 226 kts | 152° |
| 2026-05-05 06:27 | 20.53161 | -103.03830 | 9790 ft | 225 kts | 152° |
| 2026-05-05 06:27 | 20.50221 | -103.03125 | 9788 ft | 217 kts | 192° |
| 2026-05-05 06:27 | 20.48803 | -103.03635 | 9785 ft | 216 kts | 206° |
| 2026-05-05 06:28 | 20.47426 | -103.04301 | 9785 ft | 217 kts | 205° |
| 2026-05-05 06:28 | 20.46058 | -103.04950 | 9559 ft | 215 kts | 205° |
| 2026-05-05 06:28 | 20.44693 | -103.05595 | 9297 ft | 215 kts | 205° |
| 2026-05-05 06:28 | 20.43401 | -103.06367 | 9035 ft | 213 kts | 226° |
| 2026-05-05 06:29 | 20.42733 | -103.07732 | 8741 ft | 211 kts | 263° |
| 2026-05-05 06:29 | 20.42974 | -103.09246 | 8485 ft | 208 kts | 293° |
| 2026-05-05 06:29 | 20.43593 | -103.10656 | 8221 ft | 210 kts | 291° |
| 2026-05-05 06:29 | 20.44158 | -103.12028 | 7981 ft | 193 kts | 291° |
| 2026-05-05 06:30 | 20.44683 | -103.13287 | 7903 ft | 181 kts | 292° |
| 2026-05-05 06:30 | 20.45194 | -103.14503 | 7690 ft | 179 kts | 292° |
| 2026-05-05 06:30 | 20.45700 | -103.15705 | 7509 ft | 177 kts | 292° |
| 2026-05-05 06:30 | 20.46200 | -103.16894 | 7317 ft | 175 kts | 292° |
| 2026-05-05 06:31 | 20.46697 | -103.18072 | 7125 ft | 174 kts | 292° |
| 2026-05-05 06:31 | 20.47190 | -103.19243 | 6946 ft | 173 kts | 292° |
| 2026-05-05 06:31 | 20.47680 | -103.20406 | 6755 ft | 171 kts | 292° |
| 2026-05-05 06:31 | 20.48165 | -103.21560 | 6575 ft | 170 kts | 292° |
| 2026-05-05 06:32 | 20.48634 | -103.22671 | 6386 ft | 157 kts | 292° |
| 2026-05-05 06:32 | 20.49070 | -103.23708 | 6208 ft | 151 kts | 292° |
| 2026-05-05 06:32 | 20.49498 | -103.24726 | 6051 ft | 151 kts | 293° |
| 2026-05-05 06:32 | 20.49930 | -103.25752 | 5874 ft | 153 kts | 294° |
| 2026-05-05 06:33 | 20.50375 | -103.26779 | 5679 ft | 153 kts | 297° |
| 2026-05-05 06:33 | 20.50961 | -103.27722 | 5484 ft | 153 kts | 303° |
| 2026-05-05 06:33 | 20.51442 | -103.28725 | 5271 ft | 153 kts | 294° |
| 2026-05-05 06:33 | 20.51880 | -103.29756 | 5046 ft | 152 kts | 294° |
| 2026-05-05 06:34 | 20.52269 | -103.30680 | 5029 ft | 116 kts | 294° |
| 2026-05-05 06:34 | 20.52510 | -103.31253 | 5028 ft | 55 kts | 294° |
| 2026-05-05 06:34 | 20.52611 | -103.31495 | 5028 ft | 22 kts | 294° |
| 2026-05-05 06:34 | 20.52676 | -103.31533 | 5028 ft | 12 kts | 25° |
| 2026-05-05 06:35 | 20.52756 | -103.31493 | 5029 ft | 11 kts | 33° |
| 2026-05-05 06:35 | 20.52749 | -103.31417 | 5027 ft | 12 kts | 114° |
| 2026-05-05 06:35 | 20.52714 | -103.31332 | 5028 ft | 13 kts | 114° |
| 2026-05-05 06:35 | 20.52675 | -103.31238 | 5027 ft | 15 kts | 114° |
| 2026-05-05 06:36 | 20.52631 | -103.31134 | 5027 ft | 16 kts | 114° |
| 2026-05-05 06:36 | 20.52583 | -103.31020 | 5029 ft | 18 kts | 114° |
| 2026-05-05 06:36 | 20.52532 | -103.30896 | 5027 ft | 19 kts | 114° |
| 2026-05-05 06:36 | 20.52476 | -103.30763 | 5029 ft | 20 kts | 114° |
| 2026-05-05 06:37 | 20.52416 | -103.30621 | 5026 ft | 22 kts | 114° |
| 2026-05-05 06:37 | 20.52352 | -103.30469 | 5029 ft | 23 kts | 114° |
| 2026-05-05 06:37 | 20.52296 | -103.30334 | 5029 ft | 17 kts | 114° |
| 2026-05-05 06:37 | 20.52244 | -103.30213 | 5026 ft | 19 kts | 114° |
| 2026-05-05 06:38 | 20.52201 | -103.30110 | 5026 ft | 10 kts | 114° |
| 2026-05-05 06:38 | 20.52222 | -103.30060 | 5027 ft | 8 kts | 26° |
| 2026-05-05 06:38 | 20.52272 | -103.30040 | 5029 ft | 8 kts | 20° |
| 2026-05-05 06:38 | 20.52320 | -103.30021 | 5029 ft | 7 kts | 20° |
| 2026-05-05 06:39 | 20.52364 | -103.30000 | 5029 ft | 7 kts | 20° |
| 2026-05-05 06:39 | 20.52404 | -103.29985 | 5029 ft | 2 kts | 19° |
| 2026-05-05 06:39 | 20.52405 | -103.29985 | 5029 ft | 0 kts | 19° |